Time;durP1;ratioP1;P1;durP2;ratioP2;P2;SDS_P1;SDS_P2;PMS_P1;PMS_P2;Temp;Humidity;BMP_temperature;BMP_pressure;BME280_temperature;BME280_humidity;BME280_pressure;Samples;Min_cycle;Max_cycle;Signal;HPM_P1;HPM_P2
2021/06/27 00:00:12;;;;;;;5.20;4.70;;;20.30;1.00;;;;;;5074587;28;20922;-72
2021/06/27 00:02:40;;;;;;;6.87;5.53;;;20.30;1.00;;;;;;5074566;28;20458;-72
2021/06/27 00:05:09;;;;;;;4.30;3.90;;;20.30;1.00;;;;;;5074580;28;20776;-72
2021/06/27 00:07:36;;;;;;;5.00;4.50;;;20.30;1.00;;;;;;5075133;28;20477;-72
2021/06/27 00:10:05;;;;;;;6.47;4.13;;;20.30;1.00;;;;;;5074755;28;20798;-72
2021/06/27 00:12:32;;;;;;;5.33;4.90;;;20.30;1.00;;;;;;5075160;28;20478;-72
2021/06/27 00:14:59;;;;;;;5.43;4.93;;;20.20;1.00;;;;;;5074592;28;20458;-71
2021/06/27 00:17:29;;;;;;;5.27;4.10;;;20.20;1.00;;;;;;5074179;28;20458;-70
2021/06/27 00:19:57;;;;;;;5.87;5.00;;;20.20;1.00;;;;;;5075098;28;20458;-72
2021/06/27 00:22:23;;;;;;;7.13;4.83;;;20.10;1.00;;;;;;5074363;28;20461;-72
2021/06/27 00:24:50;;;;;;;4.60;4.20;;;20.10;1.00;;;;;;5074510;28;20484;-71
2021/06/27 00:27:19;;;;;;;5.50;5.00;;;20.10;1.00;;;;;;5074241;28;20472;-73
2021/06/27 00:29:46;;;;;;;7.73;5.13;;;20.10;1.00;;;;;;5073941;28;20462;-72
2021/06/27 00:32:16;;;;;;;6.80;5.20;;;20.10;1.00;;;;;;5074464;28;20561;-72
2021/06/27 00:34:43;;;;;;;5.23;3.93;;;20.10;1.00;;;;;;5074024;28;20458;-71
2021/06/27 00:37:11;;;;;;;4.20;3.90;;;20.00;1.00;;;;;;5074402;28;20458;-71
2021/06/27 00:39:37;;;;;;;5.17;4.27;;;20.00;1.00;;;;;;5074697;28;20454;-71
2021/06/27 00:42:05;;;;;;;5.50;4.30;;;20.00;1.00;;;;;;5073644;28;20462;-71
2021/06/27 00:44:31;;;;;;;5.13;4.43;;;20.00;1.00;;;;;;5074436;28;20465;-71
2021/06/27 00:46:58;;;;;;;3.63;3.33;;;19.90;1.00;;;;;;5073913;28;20588;-72
2021/06/27 00:49:25;;;;;;;4.80;4.27;;;19.90;1.00;;;;;;5074344;28;20740;-72
2021/06/27 00:51:52;;;;;;;4.10;3.80;;;19.80;1.00;;;;;;5073780;28;20976;-72
2021/06/27 00:54:20;;;;;;;5.13;3.90;;;19.80;1.00;;;;;;5074357;28;20458;-71
2021/06/27 00:56:46;;;;;;;3.90;3.60;;;19.80;1.00;;;;;;5076643;28;20469;-71
2021/06/27 00:59:13;;;;;;;3.90;3.60;;;19.80;1.00;;;;;;5077855;28;20453;-71
2021/06/27 01:01:40;;;;;;;4.27;3.93;;;19.80;1.00;;;;;;5077579;28;20911;-72
2021/06/27 01:04:07;;;;;;;5.03;3.80;;;19.80;1.00;;;;;;5077668;28;20468;-71
2021/06/27 01:06:34;;;;;;;4.87;4.47;;;19.80;1.00;;;;;;5077520;28;20461;-73
2021/06/27 01:09:01;;;;;;;3.83;3.40;;;19.80;1.00;;;;;;5077458;28;20759;-72
2021/06/27 01:11:29;;;;;;;4.60;4.20;;;19.80;1.00;;;;;;5077509;28;20473;-71
2021/06/27 01:13:56;;;;;;;4.83;4.30;;;19.80;1.00;;;;;;5077213;28;20454;-73
2021/06/27 01:16:22;;;;;;;3.83;3.53;;;19.80;1.00;;;;;;5078084;28;20799;-71
2021/06/27 01:18:53;;;;;;;4.97;4.57;;;19.80;1.00;;;;;;5077429;28;20457;-71
2021/06/27 01:21:22;;;;;;;4.20;3.80;;;19.80;1.00;;;;;;5078654;28;20525;-71
2021/06/27 01:23:48;;;;;;;4.20;3.80;;;19.80;1.00;;;;;;5077606;28;20469;-72
2021/06/27 01:26:15;;;;;;;4.50;4.10;;;19.80;1.00;;;;;;5078000;28;20545;-72
2021/06/27 01:28:42;;;;;;;4.20;3.80;;;19.80;1.00;;;;;;5077536;28;20468;-72
2021/06/27 01:31:10;;;;;;;4.40;4.00;;;19.80;1.00;;;;;;5077407;28;20458;-71
2021/06/27 01:33:37;;;;;;;4.40;4.00;;;19.80;1.00;;;;;;5077024;28;20461;-71
2021/06/27 01:36:04;;;;;;;4.00;3.60;;;19.70;1.00;;;;;;5077168;28;20462;-71
2021/06/27 01:38:35;;;;;;;4.13;3.83;;;19.70;1.00;;;;;;5077329;28;20458;-72
2021/06/27 01:41:03;;;;;;;4.77;4.27;;;19.60;1.00;;;;;;5078244;28;20449;-72
2021/06/27 01:43:30;;;;;;;5.23;4.23;;;19.60;1.00;;;;;;5077167;28;20450;-71
2021/06/27 01:46:01;;;;;;;8.20;3.90;;;19.50;1.00;;;;;;5076749;28;20454;-71
2021/06/27 01:48:28;;;;;;;3.90;3.60;;;19.50;1.00;;;;;;5077338;28;20492;-71
2021/06/27 01:50:57;;;;;;;4.07;3.40;;;19.50;1.00;;;;;;5077190;28;20458;-71
2021/06/27 01:53:29;;;;;;;3.90;3.60;;;19.40;1.00;;;;;;5076904;28;20474;-72
2021/06/27 01:56:07;;;;;;;4.07;3.67;;;19.40;1.00;;;;;;5077452;28;20470;-72
2021/06/27 01:58:39;;;;;;;12.03;4.17;;;19.40;1.00;;;;;;5076630;28;20442;-72
2021/06/27 02:01:09;;;;;;;4.10;3.33;;;19.30;1.00;;;;;;5076795;28;20508;-72
2021/06/27 02:03:36;;;;;;;4.00;3.37;;;19.20;1.00;;;;;;5076356;28;20464;-72
2021/06/27 02:06:03;;;;;;;4.90;3.40;;;19.20;1.00;;;;;;5076614;28;20462;-72
2021/06/27 02:08:34;;;;;;;3.83;3.30;;;19.20;1.00;;;;;;5075699;28;20462;-72
2021/06/27 02:11:04;;;;;;;4.80;4.10;;;19.20;1.00;;;;;;5076645;28;20855;-72
2021/06/27 02:13:31;;;;;;;4.80;3.60;;;19.20;1.00;;;;;;5076300;28;20482;-72
2021/06/27 02:16:01;;;;;;;4.07;3.77;;;19.20;1.00;;;;;;5076701;28;20469;-71
2021/06/27 02:18:31;;;;;;;3.57;3.27;;;19.10;19.20;;;;;;5076197;28;20465;-72
2021/06/27 02:21:02;;;;;;;3.57;3.23;;;19.10;25.10;;;;;;5076598;28;20469;-71
2021/06/27 02:23:30;;;;;;;4.20;3.80;;;19.10;47.00;;;;;;5076308;28;20453;-72
2021/06/27 02:25:59;;;;;;;4.63;3.93;;;19.10;52.80;;;;;;5076385;28;20466;-71
2021/06/27 02:28:27;;;;;;;4.17;3.77;;;19.10;82.90;;;;;;5076044;28;20454;-72
2021/06/27 02:30:54;;;;;;;5.23;4.60;;;19.00;84.80;;;;;;5076056;28;20458;-71
2021/06/27 02:33:21;;;;;;;6.97;3.87;;;19.00;99.90;;;;;;5076068;28;20588;-72
2021/06/27 02:35:48;;;;;;;5.83;3.87;;;19.00;99.90;;;;;;5076920;28;20767;-73
2021/06/27 02:38:15;;;;;;;4.30;4.00;;;19.00;99.90;;;;;;5075760;28;20466;-72
2021/06/27 02:40:43;;;;;;;4.30;3.50;;;18.90;99.90;;;;;;5075644;28;20469;-72
2021/06/27 02:43:10;;;;;;;5.13;3.90;;;18.90;99.90;;;;;;5076197;28;20457;-72
2021/06/27 02:45:38;;;;;;;4.33;3.93;;;18.90;99.90;;;;;;5075766;28;20468;-72
2021/06/27 02:48:06;;;;;;;7.07;3.90;;;18.80;99.90;;;;;;5075698;28;20489;-72
2021/06/27 02:50:35;;;;;;;4.50;4.10;;;18.80;99.90;;;;;;5075754;28;20480;-72
2021/06/27 02:53:02;;;;;;;6.80;3.60;;;18.80;99.90;;;;;;5076050;28;20477;-72
2021/06/27 02:55:29;;;;;;;4.57;4.17;;;18.80;99.90;;;;;;5075516;28;20462;-72
2021/06/27 02:57:56;;;;;;;5.40;4.80;;;18.80;99.90;;;;;;5075797;28;20469;-72
2021/06/27 03:00:23;;;;;;;5.10;4.37;;;18.80;99.90;;;;;;5075778;28;20469;-72
2021/06/27 03:02:51;;;;;;;5.20;4.13;;;18.80;99.90;;;;;;5075559;28;20554;-72
2021/06/27 03:05:18;;;;;;;4.67;4.17;;;18.80;99.90;;;;;;5075260;28;20458;-72
2021/06/27 03:07:45;;;;;;;4.63;4.13;;;18.70;99.90;;;;;;5075204;28;20468;-72
2021/06/27 03:10:14;;;;;;;4.93;4.33;;;18.70;99.90;;;;;;5075582;28;20911;-72
2021/06/27 03:12:42;;;;;;;4.70;4.30;;;18.70;99.90;;;;;;5075757;28;20482;-72
2021/06/27 03:15:10;;;;;;;4.67;4.27;;;18.70;99.90;;;;;;5075395;28;20743;-72
2021/06/27 03:17:37;;;;;;;5.77;4.33;;;18.70;99.90;;;;;;5075331;28;20458;-72
2021/06/27 03:20:07;;;;;;;5.73;4.73;;;18.70;99.90;;;;;;5074848;28;20454;-72
2021/06/27 03:22:34;;;;;;;5.33;4.83;;;18.60;99.90;;;;;;5075085;28;20473;-72
2021/06/27 03:25:01;;;;;;;6.00;4.80;;;18.60;99.90;;;;;;5075080;28;20871;-72
2021/06/27 03:27:28;;;;;;;5.67;5.17;;;18.60;1.00;;;;;;5074921;28;20946;-72
2021/06/27 03:29:54;;;;;;;5.50;5.03;;;18.60;1.00;;;;;;5075254;28;20798;-72
2021/06/27 03:32:21;;;;;;;5.33;4.93;;;18.50;1.00;;;;;;5075160;28;20478;-72
2021/06/27 03:34:48;;;;;;;5.37;4.93;;;18.50;1.00;;;;;;5075130;28;20465;-72
2021/06/27 03:37:16;;;;;;;6.33;5.00;;;18.50;1.00;;;;;;5075017;28;20496;-72
2021/06/27 03:39:43;;;;;;;6.67;4.90;;;18.50;1.00;;;;;;5074976;28;20454;-72
2021/06/27 03:42:10;;;;;;;5.23;4.73;;;18.50;1.00;;;;;;5074393;28;20462;-72
2021/06/27 03:44:37;;;;;;;5.17;4.30;;;18.40;1.00;;;;;;5075086;28;20462;-72
2021/06/27 03:47:04;;;;;;;6.40;5.80;;;18.40;1.00;;;;;;5074843;28;20478;-72
2021/06/27 03:49:34;;;;;;;5.50;4.83;;;18.40;1.00;;;;;;5074795;28;20454;-72
2021/06/27 03:52:00;;;;;;;4.60;4.20;;;18.40;1.00;;;;;;5074518;28;20821;-72
2021/06/27 03:54:28;;;;;;;5.70;5.20;;;18.40;1.00;;;;;;5074693;28;20458;-72
2021/06/27 03:56:55;;;;;;;6.53;5.20;;;18.40;1.00;;;;;;5074500;28;20454;-71
2021/06/27 03:59:22;;;;;;;5.60;4.97;;;18.40;1.00;;;;;;5075103;28;20477;-72
2021/06/27 04:01:48;;;;;;;4.90;4.40;;;18.40;1.00;;;;;;5074358;28;20465;-72
2021/06/27 04:04:15;;;;;;;7.60;5.40;;;18.40;1.00;;;;;;5075016;28;20460;-73
2021/06/27 04:06:42;;;;;;;5.10;4.60;;;18.40;1.00;;;;;;5075053;28;20566;-72
2021/06/27 04:09:08;;;;;;;5.97;5.03;;;18.40;1.00;;;;;;5074806;28;20786;-72
2021/06/27 04:11:36;;;;;;;5.83;4.93;;;18.40;1.00;;;;;;5074559;28;20477;-72
2021/06/27 04:14:03;;;;;;;5.07;4.47;;;18.50;1.00;;;;;;5074509;28;20848;-72
2021/06/27 04:16:30;;;;;;;5.57;5.00;;;18.50;1.00;;;;;;5074188;28;20557;-72
2021/06/27 04:18:57;;;;;;;5.43;4.93;;;18.50;1.00;;;;;;5074269;28;20458;-72
2021/06/27 04:21:25;;;;;;;6.13;5.63;;;18.50;1.00;;;;;;5074726;28;20462;-71
2021/06/27 04:23:52;;;;;;;5.20;4.70;;;18.50;1.00;;;;;;5074308;28;20472;-72
2021/06/27 04:26:19;;;;;;;5.03;4.63;;;18.60;1.00;;;;;;5074336;28;20822;-71
2021/06/27 04:28:47;;;;;;;5.83;5.23;;;18.60;1.00;;;;;;5074444;28;20454;-71
2021/06/27 04:31:13;;;;;;;5.57;5.07;;;18.60;1.00;;;;;;5076223;28;20819;-72
2021/06/27 04:33:40;;;;;;;6.00;5.40;;;18.60;1.00;;;;;;5078518;28;20481;-72
2021/06/27 04:36:07;;;;;;;5.83;5.00;;;18.70;1.00;;;;;;5078360;28;20526;-72
2021/06/27 04:38:35;;;;;;;5.20;4.70;;;18.70;1.00;;;;;;5078918;28;20835;-72
2021/06/27 04:41:02;;;;;;;5.63;5.20;;;18.70;1.00;;;;;;5078803;28;20454;-72
2021/06/27 04:43:29;;;;;;;5.17;4.77;;;18.80;1.00;;;;;;5078321;28;20458;-72
2021/06/27 04:45:57;;;;;;;5.30;4.80;;;18.80;1.00;;;;;;5078110;28;20450;-71
2021/06/27 04:48:24;;;;;;;5.60;5.00;;;18.80;1.00;;;;;;5078111;28;20777;-71
2021/06/27 04:50:50;;;;;;;4.80;4.40;;;18.90;1.00;;;;;;5078415;28;20972;-71
2021/06/27 04:53:18;;;;;;;4.73;4.27;;;18.90;1.00;;;;;;5077719;28;20591;-71
2021/06/27 04:55:46;;;;;;;4.70;4.30;;;19.00;1.00;;;;;;5078234;28;20795;-72
2021/06/27 04:58:13;;;;;;;4.87;4.47;;;19.00;1.00;;;;;;5078135;28;20853;-72
2021/06/27 05:00:41;;;;;;;5.60;4.80;;;19.10;1.00;;;;;;5077745;28;20461;-72
2021/06/27 05:03:09;;;;;;;5.60;4.73;;;19.10;99.90;;;;;;5077772;28;20481;-72
2021/06/27 05:05:36;;;;;;;4.77;4.30;;;19.20;99.90;;;;;;5077628;28;20469;-72
2021/06/27 05:08:03;;;;;;;5.47;4.97;;;19.30;99.90;;;;;;5077680;28;20453;-72
2021/06/27 05:10:30;;;;;;;5.60;4.80;;;19.30;99.90;;;;;;5077769;28;20454;-72
2021/06/27 05:12:56;;;;;;;5.13;4.67;;;19.40;99.90;;;;;;5077398;28;20474;-72
2021/06/27 05:15:23;;;;;;;4.80;4.40;;;19.40;99.90;;;;;;5077556;28;20541;-72
2021/06/27 05:17:50;;;;;;;5.17;4.67;;;19.40;99.90;;;;;;5077960;28;20526;-72
2021/06/27 05:20:18;;;;;;;5.10;4.60;;;19.50;99.90;;;;;;5077884;28;20465;-72
2021/06/27 05:22:45;;;;;;;5.73;4.20;;;19.60;99.90;;;;;;5077466;28;20454;-72
2021/06/27 05:25:12;;;;;;;5.63;4.10;;;19.60;99.90;;;;;;5077242;28;20454;-72
2021/06/27 05:27:39;;;;;;;4.63;4.23;;;19.70;99.90;;;;;;5077554;28;20941;-72
2021/06/27 05:30:07;;;;;;;4.80;4.13;;;19.70;99.90;;;;;;5078001;28;20458;-72
2021/06/27 05:32:34;;;;;;;5.43;4.20;;;19.80;99.90;;;;;;5077838;28;20457;-71
2021/06/27 05:35:01;;;;;;;4.37;4.07;;;19.90;99.90;;;;;;5077268;28;20910;-71
2021/06/27 05:37:29;;;;;;;4.90;4.50;;;19.90;99.90;;;;;;5077291;28;20465;-72
2021/06/27 05:39:55;;;;;;;5.07;4.60;;;20.00;99.90;;;;;;5077434;28;20928;-72
2021/06/27 05:42:22;;;;;;;4.87;4.47;;;20.00;99.90;;;;;;5077122;28;20454;-73
2021/06/27 05:44:49;;;;;;;5.13;4.40;;;20.10;99.90;;;;;;5077029;28;20482;-72
2021/06/27 05:47:15;;;;;;;4.93;4.53;;;20.20;89.70;;;;;;5076775;28;20485;-71
2021/06/27 05:49:42;;;;;;;4.73;4.23;;;20.20;63.00;;;;;;5077083;28;20457;-72
2021/06/27 05:52:09;;;;;;;6.00;4.70;;;20.20;54.30;;;;;;5077021;28;20744;-71
2021/06/27 05:54:37;;;;;;;4.87;4.40;;;20.30;42.20;;;;;;5076702;28;20488;-71
2021/06/27 05:57:04;;;;;;;4.00;3.57;;;20.40;73.10;;;;;;5076912;28;20466;-71
2021/06/27 05:59:31;;;;;;;4.30;3.90;;;20.40;63.10;;;;;;5077108;28;20472;-71
2021/06/27 06:01:58;;;;;;;4.40;4.00;;;20.50;42.20;;;;;;5076675;28;20902;-71
2021/06/27 06:04:24;;;;;;;5.10;3.60;;;20.60;19.70;;;;;;5076926;28;20454;-72
2021/06/27 06:06:51;;;;;;;3.83;3.53;;;20.60;10.70;;;;;;5077004;28;20481;-71
2021/06/27 06:09:18;;;;;;;4.57;4.17;;;20.70;1.00;;;;;;5076534;28;20458;-72
2021/06/27 06:11:47;;;;;;;3.93;3.60;;;20.80;1.00;;;;;;5076722;28;20464;-71
2021/06/27 06:14:13;;;;;;;3.80;3.40;;;20.90;1.00;;;;;;5076860;28;20805;-71
2021/06/27 06:16:40;;;;;;;4.23;3.83;;;21.00;1.00;;;;;;5076398;28;20507;-72
2021/06/27 06:19:07;;;;;;;3.37;3.17;;;21.10;1.00;;;;;;5076299;28;20492;-72
2021/06/27 06:21:34;;;;;;;4.00;3.60;;;21.20;1.00;;;;;;5076551;28;20458;-71
2021/06/27 06:24:01;;;;;;;3.70;3.40;;;21.30;1.00;;;;;;5076632;28;20937;-71
2021/06/27 06:26:28;;;;;;;3.30;3.00;;;21.30;1.00;;;;;;5076356;28;20458;-71
2021/06/27 06:28:59;;;;;;;4.00;3.60;;;21.40;1.00;;;;;;5076512;28;20469;-71
2021/06/27 06:31:26;;;;;;;3.03;2.80;;;21.50;1.00;;;;;;5075670;28;20922;-72
2021/06/27 06:33:52;;;;;;;3.37;3.17;;;21.60;1.00;;;;;;5076236;28;20474;-72
2021/06/27 06:36:19;;;;;;;3.47;3.17;;;21.60;1.00;;;;;;5075689;28;20454;-73
2021/06/27 06:38:46;;;;;;;3.23;3.00;;;21.70;1.00;;;;;;5075927;28;20454;-72
2021/06/27 06:41:12;;;;;;;3.40;3.10;;;21.70;1.00;;;;;;5076169;28;20462;-72
2021/06/27 06:43:39;;;;;;;3.13;2.83;;;21.80;1.00;;;;;;5076098;28;20794;-72
2021/06/27 06:46:07;;;;;;;3.23;2.87;;;21.90;1.00;;;;;;5076071;28;20457;-72
2021/06/27 06:48:34;;;;;;;2.83;2.60;;;21.90;1.00;;;;;;5075610;28;20434;-72
2021/06/27 06:51:01;;;;;;;3.83;3.30;;;22.00;1.00;;;;;;5079453;28;20469;-70
2021/06/27 06:53:28;;;;;;;3.20;2.90;;;22.10;1.00;;;;;;5091852;28;20542;-70
2021/06/27 06:55:56;;;;;;;3.00;2.80;;;22.10;1.00;;;;;;5090206;28;20450;-70
2021/06/27 06:58:23;;;;;;;2.70;2.50;;;22.10;1.00;;;;;;5090347;28;20497;-70
2021/06/27 07:00:50;;;;;;;3.30;2.83;;;22.20;1.00;;;;;;5091866;28;20447;-69
2021/06/27 07:03:21;;;;;;;3.30;3.00;;;22.20;1.00;;;;;;5095909;28;20465;-70
2021/06/27 07:05:48;;;;;;;3.83;2.63;;;22.30;1.00;;;;;;5094664;28;20446;-70
2021/06/27 07:08:14;;;;;;;3.43;3.00;;;22.30;1.00;;;;;;5092419;28;20455;-70
2021/06/27 07:10:41;;;;;;;3.70;3.00;;;22.30;1.00;;;;;;5093272;28;20454;-70
2021/06/27 07:13:08;;;;;;;4.07;2.80;;;22.40;1.00;;;;;;5092938;28;20472;-70
2021/06/27 07:15:35;;;;;;;3.20;2.63;;;22.40;1.00;;;;;;5094344;28;20485;-71
2021/06/27 07:18:01;;;;;;;3.20;2.73;;;22.40;1.00;;;;;;5091651;28;20454;-70
2021/06/27 07:20:30;;;;;;;3.07;2.77;;;22.50;1.00;;;;;;5092927;28;20454;-71
2021/06/27 07:22:56;;;;;;;3.07;2.83;;;22.50;1.00;;;;;;5091129;28;20461;-71
2021/06/27 07:25:23;;;;;;;3.23;2.93;;;22.60;1.00;;;;;;5090969;28;20462;-70
2021/06/27 07:27:50;;;;;;;4.60;2.77;;;22.70;1.00;;;;;;5092358;28;20480;-69
2021/06/27 07:30:17;;;;;;;3.70;3.07;;;22.70;1.00;;;;;;5091760;28;20516;-69
2021/06/27 07:32:44;;;;;;;3.10;2.90;;;22.70;1.00;;;;;;5091403;28;20469;-69
2021/06/27 07:35:11;;;;;;;3.23;2.80;;;22.70;1.00;;;;;;5092736;28;20488;-69
2021/06/27 07:37:39;;;;;;;3.67;3.10;;;22.80;1.00;;;;;;5091798;28;20454;-70
2021/06/27 07:40:09;;;;;;;2.90;2.70;;;22.80;1.00;;;;;;5092704;28;20960;-70
2021/06/27 07:42:36;;;;;;;6.10;3.13;;;22.90;1.00;;;;;;5093067;28;20489;-70
2021/06/27 07:45:03;;;;;;;2.77;2.57;;;22.90;1.00;;;;;;5093215;28;20456;-69
2021/06/27 07:47:30;;;;;;;2.97;2.73;;;22.90;1.00;;;;;;5090799;28;20474;-70
2021/06/27 07:49:57;;;;;;;3.37;3.17;;;22.90;1.00;;;;;;5090243;28;20458;-69
2021/06/27 07:52:23;;;;;;;3.20;3.00;;;22.90;1.00;;;;;;5091336;28;20461;-70
2021/06/27 07:54:52;;;;;;;3.37;3.17;;;22.90;1.00;;;;;;5090256;28;20787;-69
2021/06/27 07:57:19;;;;;;;4.47;2.87;;;22.90;1.00;;;;;;5089936;28;20454;-70
2021/06/27 07:59:46;;;;;;;3.47;3.27;;;22.90;1.00;;;;;;5089890;28;20454;-71
2021/06/27 08:02:12;;;;;;;3.33;3.03;;;22.90;1.00;;;;;;5091083;28;20460;-70
2021/06/27 08:04:39;;;;;;;3.20;3.00;;;22.90;1.00;;;;;;5089600;28;20457;-70
2021/06/27 08:07:06;;;;;;;3.53;3.20;;;23.00;1.00;;;;;;5090544;28;20469;-70
2021/06/27 08:09:33;;;;;;;3.20;3.00;;;23.10;1.00;;;;;;5090066;28;20454;-70
2021/06/27 08:12:01;;;;;;;3.20;2.97;;;23.20;1.00;;;;;;5090869;28;20446;-70
2021/06/27 08:14:28;;;;;;;2.70;2.50;;;23.20;1.00;;;;;;5091493;28;20493;-70
2021/06/27 08:16:55;;;;;;;2.93;2.73;;;23.20;1.00;;;;;;5091465;28;20461;-70
2021/06/27 08:19:21;;;;;;;4.73;4.23;;;23.30;1.00;;;;;;5091998;28;20446;-69
2021/06/27 08:21:48;;;;;;;4.13;3.60;;;23.30;1.00;;;;;;5090941;28;20890;-69
2021/06/27 08:24:15;;;;;;;4.23;3.80;;;23.40;1.00;;;;;;5091216;28;20450;-71
2021/06/27 08:26:42;;;;;;;3.73;2.90;;;23.40;1.00;;;;;;5091783;28;20548;-69
2021/06/27 08:29:10;;;;;;;2.93;2.73;;;23.50;1.00;;;;;;5091275;28;20465;-69
2021/06/27 08:31:44;;;;;;;4.13;2.77;;;23.50;1.00;;;;;;5091712;28;20496;-69
2021/06/27 08:34:11;;;;;;;3.10;2.90;;;23.60;1.00;;;;;;5091123;28;20470;-69
2021/06/27 08:36:38;;;;;;;6.17;3.13;;;23.60;1.00;;;;;;5091733;28;20524;-69
2021/06/27 08:39:08;;;;;;;2.90;2.70;;;23.70;1.00;;;;;;5090681;28;20568;-69
2021/06/27 08:41:35;;;;;;;3.77;3.20;;;23.70;1.00;;;;;;5091675;28;20456;-69
2021/06/27 08:44:02;;;;;;;3.17;2.87;;;23.80;1.00;;;;;;5091747;28;20450;-70
2021/06/27 08:46:34;;;;;;;2.63;2.43;;;23.80;1.00;;;;;;5090756;28;20477;-70
2021/06/27 08:49:01;;;;;;;2.80;2.60;;;23.90;1.00;;;;;;5091468;28;20450;-70
2021/06/27 08:51:28;;;;;;;2.73;2.27;;;23.90;1.00;;;;;;5090451;28;20454;-70
2021/06/27 08:53:56;;;;;;;2.60;2.40;;;23.90;1.00;;;;;;5090140;28;20478;-70
2021/06/27 08:56:22;;;;;;;2.90;2.70;;;23.90;1.00;;;;;;5089504;28;20454;-69
2021/06/27 08:58:49;;;;;;;2.70;2.50;;;24.00;1.00;;;;;;5086899;28;20469;-70
2021/06/27 09:01:21;;;;;;;2.83;2.63;;;24.00;1.00;;;;;;5086167;28;20469;-70
2021/06/27 09:03:50;;;;;;;3.27;3.00;;;24.00;1.00;;;;;;5084427;28;20821;-70
2021/06/27 09:06:27;;;;;;;3.33;3.13;;;24.00;1.00;;;;;;5084358;28;20458;-70
2021/06/27 09:09:11;;;;;;;3.00;2.80;;;24.10;1.00;;;;;;5083790;28;20458;-70
2021/06/27 09:11:39;;;;;;;2.97;2.77;;;24.10;1.00;;;;;;5084953;28;20480;-70
2021/06/27 09:14:23;;;;;;;2.50;2.30;;;24.20;1.00;;;;;;5085045;28;20480;-70
2021/06/27 09:17:15;;;;;;;3.10;2.87;;;24.20;1.00;;;;;;5093214;28;20464;-69
2021/06/27 09:20:02;;;;;;;2.97;2.77;;;24.30;1.00;;;;;;5095415;28;20434;-69
2021/06/27 09:22:31;;;;;;;3.20;2.90;;;24.40;1.00;;;;;;5094029;28;20429;-70
2021/06/27 09:25:13;;;;;;;3.97;3.53;;;24.40;1.00;;;;;;5092318;28;20442;-70
2021/06/27 09:27:40;;;;;;;3.70;2.97;;;24.50;1.00;;;;;;5091146;28;20438;-69
2021/06/27 09:30:18;;;;;;;2.47;2.27;;;24.50;1.00;;;;;;5091322;28;20989;-70
2021/06/27 09:32:57;;;;;;;2.77;2.57;;;24.60;1.00;;;;;;5092890;28;20442;-69
2021/06/27 09:35:47;;;;;;;2.90;2.70;;;24.60;1.00;;;;;;5092833;28;20562;-70
2021/06/27 09:38:37;;;;;;;2.30;2.20;;;24.70;1.00;;;;;;5092695;28;20511;-69
2021/06/27 09:41:07;;;;;;;2.47;2.27;;;24.70;1.00;;;;;;5093138;28;20453;-70
2021/06/27 09:43:36;;;;;;;2.83;2.63;;;24.80;1.00;;;;;;5090902;28;20478;-70
2021/06/27 09:46:11;;;;;;;3.07;2.43;;;24.90;1.00;;;;;;5088922;28;20458;-70
2021/06/27 09:48:50;;;;;;;4.77;2.70;;;24.90;1.00;;;;;;5087176;28;20499;-70
2021/06/27 09:51:19;;;;;;;3.00;2.70;;;24.90;1.00;;;;;;5087123;28;20430;-70
2021/06/27 09:53:47;;;;;;;2.70;2.50;;;24.90;1.00;;;;;;5089004;28;20453;-70
2021/06/27 09:56:14;;;;;;;3.30;2.57;;;24.90;1.00;;;;;;5089174;28;20763;-70
2021/06/27 09:58:54;;;;;;;1.83;1.73;;;24.90;1.00;;;;;;5090948;28;20462;-69
2021/06/27 10:01:23;;;;;;;2.63;2.43;;;25.00;1.00;;;;;;5091989;28;20439;-70
2021/06/27 10:03:54;;;;;;;3.00;2.17;;;25.10;1.00;;;;;;5093948;28;20454;-70
2021/06/27 10:06:24;;;;;;;2.40;2.13;;;25.20;1.00;;;;;;5092081;28;20495;-70
2021/06/27 10:08:51;;;;;;;3.00;2.50;;;25.30;1.00;;;;;;5091264;28;20946;-69
2021/06/27 10:11:20;;;;;;;2.37;2.27;;;25.30;1.00;;;;;;5091645;28;20461;-69
2021/06/27 10:13:48;;;;;;;2.63;2.43;;;25.40;1.00;;;;;;5090606;28;20462;-69
2021/06/27 10:16:25;;;;;;;1.83;1.73;;;25.40;1.00;;;;;;5090948;28;20454;-70
2021/06/27 10:18:52;;;;;;;2.47;2.03;;;25.50;1.00;;;;;;5090684;28;20447;-69
2021/06/27 10:21:19;;;;;;;2.03;1.90;;;25.60;1.00;;;;;;5079984;28;20939;-71
2021/06/27 10:23:49;;;;;;;3.50;2.40;;;25.60;1.00;;;;;;5076725;28;20937;-71
2021/06/27 10:26:17;;;;;;;2.03;1.93;;;25.70;1.00;;;;;;5076356;28;20918;-71
2021/06/27 10:28:47;;;;;;;2.10;1.90;;;25.80;1.00;;;;;;5075658;28;20450;-71
2021/06/27 10:31:14;;;;;;;2.63;2.10;;;25.80;1.00;;;;;;5076651;28;20469;-72
2021/06/27 10:33:41;;;;;;;2.97;1.90;;;25.90;1.00;;;;;;5077304;28;20462;-73
2021/06/27 10:36:11;;;;;;;2.67;2.47;;;26.00;1.00;;;;;;5076853;28;20796;-72
2021/06/27 10:38:41;;;;;;;3.50;1.90;;;26.00;1.00;;;;;;5077389;28;20469;-71
2021/06/27 10:41:09;;;;;;;2.67;2.23;;;26.10;1.00;;;;;;5076164;28;20469;-71
2021/06/27 10:44:01;;;;;;;5.23;2.50;;;26.20;1.00;;;;;;5075740;28;20790;-71
2021/06/27 10:46:38;;;;;;;2.50;2.30;;;26.40;1.00;;;;;;5076360;28;20544;-71
2021/06/27 10:49:06;;;;;;;2.53;2.33;;;26.40;1.00;;;;;;5076537;28;20461;-70
2021/06/27 10:51:59;;;;;;;2.70;2.50;;;26.50;1.00;;;;;;5075564;28;20469;-71
2021/06/27 10:54:26;;;;;;;2.40;2.20;;;26.50;1.00;;;;;;5075626;28;20853;-71
2021/06/27 10:56:59;;;;;;;4.93;2.83;;;26.50;1.00;;;;;;5075520;28;20561;-71
2021/06/27 11:00:00;;;;;;;3.80;2.10;;;26.70;1.00;;;;;;5079800;28;20518;-69
2021/06/27 11:02:39;;;;;;;3.23;3.03;;;26.90;1.00;;;;;;5092473;28;20449;-70
2021/06/27 11:05:46;;;;;;;2.30;2.10;;;27.10;1.00;;;;;;5091065;28;20476;-70
2021/06/27 11:08:35;;;;;;;2.87;2.67;;;27.30;1.00;;;;;;5090035;28;20469;-68
2021/06/27 11:11:08;;;;;;;2.50;2.30;;;27.30;1.00;;;;;;5090502;28;20430;-68
2021/06/27 11:13:37;;;;;;;2.40;2.20;;;27.40;1.00;;;;;;5089239;28;20453;-69
2021/06/27 11:16:14;;;;;;;2.63;2.43;;;27.60;1.00;;;;;;5088950;28;20474;-69
2021/06/27 11:18:43;;;;;;;2.53;2.33;;;27.80;1.00;;;;;;5090845;28;20442;-69
2021/06/27 11:21:12;;;;;;;3.27;2.97;;;28.10;1.00;;;;;;5092622;28;20442;-69
2021/06/27 11:24:00;;;;;;;2.33;2.13;;;28.50;1.00;;;;;;5091861;28;20449;-69
2021/06/27 11:26:47;;;;;;;2.80;2.60;;;29.10;1.00;;;;;;5091542;28;20446;-69
2021/06/27 11:29:47;;;;;;;2.43;2.23;;;29.30;1.00;;;;;;5090973;28;20454;-69
2021/06/27 11:32:50;;;;;;;2.90;2.70;;;29.70;1.00;;;;;;5090990;28;20456;-69
2021/06/27 11:35:38;;;;;;;2.30;2.10;;;30.00;1.00;;;;;;5091517;28;20462;-69
2021/06/27 11:38:05;;;;;;;4.10;2.87;;;30.00;1.00;;;;;;5090390;28;20439;-69
2021/06/27 11:40:50;;;;;;;2.07;1.97;;;29.70;1.00;;;;;;5088504;28;20771;-69
2021/06/27 11:43:18;;;;;;;2.50;2.30;;;29.40;1.00;;;;;;5088858;28;20449;-69
2021/06/27 11:45:49;;;;;;;2.50;2.30;;;29.70;1.00;;;;;;5089005;28;20946;-69
2021/06/27 11:48:16;;;;;;;2.60;2.40;;;30.40;1.00;;;;;;5089768;28;20482;-69
2021/06/27 11:50:49;;;;;;;3.33;2.10;;;31.20;1.00;;;;;;5091168;28;20454;-69
2021/06/27 11:53:16;;;;;;;2.30;2.13;;;32.20;1.00;;;;;;5091422;28;20422;-69
2021/06/27 11:55:44;;;;;;;2.20;2.00;;;33.10;1.00;;;;;;5090770;28;20543;-69
2021/06/27 11:58:19;;;;;;;2.60;2.20;;;33.90;1.00;;;;;;5091798;28;20461;-69
2021/06/27 12:00:50;;;;;;;2.40;1.90;;;34.70;1.00;;;;;;5091541;28;20446;-69
2021/06/27 12:03:19;;;;;;;2.90;2.47;;;35.50;1.00;;;;;;5092733;28;20446;-69
2021/06/27 12:05:55;;;;;;;2.10;1.87;;;35.80;1.00;;;;;;5092703;28;20450;-69
2021/06/27 12:08:23;;;;;;;2.57;2.40;;;35.90;1.00;;;;;;5094163;28;20458;-69
2021/06/27 12:10:52;;;;;;;2.87;2.40;;;35.90;1.00;;;;;;5094845;28;20439;-69
2021/06/27 12:13:21;;;;;;;1.80;1.70;;;35.70;1.00;;;;;;5092609;28;20450;-69
2021/06/27 12:15:51;;;;;;;2.27;2.07;;;35.60;1.00;;;;;;5092954;28;20484;-69
2021/06/27 12:18:20;;;;;;;2.53;2.10;;;35.10;1.00;;;;;;5094655;28;20457;-69
2021/06/27 12:20:49;;;;;;;2.20;2.00;;;34.90;1.00;;;;;;5094098;28;20537;-69
2021/06/27 12:23:18;;;;;;;2.50;2.30;;;35.10;1.00;;;;;;5095447;28;20457;-72
2021/06/27 12:25:46;;;;;;;1.77;1.67;;;35.20;1.00;;;;;;5095276;28;20842;-69
2021/06/27 12:28:16;;;;;;;2.13;1.83;;;35.40;1.00;;;;;;5093978;28;20450;-69
2021/06/27 12:30:45;;;;;;;1.93;1.83;;;35.80;1.00;;;;;;5094020;28;20458;-69
2021/06/27 12:33:15;;;;;;;2.83;1.70;;;36.00;1.00;;;;;;5094371;28;20458;-69
2021/06/27 12:35:43;;;;;;;1.77;1.67;;;36.10;1.00;;;;;;5095130;28;20473;-70
2021/06/27 12:38:11;;;;;;;2.70;1.87;;;36.20;1.00;;;;;;5094754;28;20464;-69
2021/06/27 12:40:41;;;;;;;1.90;1.80;;;36.20;1.00;;;;;;5094471;28;20450;-69
2021/06/27 12:43:22;;;;;;;2.00;1.90;;;36.10;1.00;;;;;;5093968;28;20446;-69
2021/06/27 12:46:10;;;;;;;2.07;1.93;;;35.90;1.00;;;;;;5093646;28;20529;-69
2021/06/27 12:48:39;;;;;;;5.00;2.23;;;35.80;1.00;;;;;;5093714;28;20469;-69
2021/06/27 12:51:18;;;;;;;1.97;1.87;;;35.50;1.00;;;;;;5093147;28;20451;-69
2021/06/27 12:53:59;;;;;;;3.20;2.37;;;35.40;1.00;;;;;;5095788;28;20438;-69
2021/06/27 12:56:39;;;;;;;5.30;2.10;;;35.20;1.00;;;;;;5092230;28;20466;-69
2021/06/27 12:59:06;;;;;;;3.73;1.97;;;35.30;1.00;;;;;;5092524;28;20453;-69
2021/06/27 13:02:01;;;;;;;2.03;1.87;;;35.40;1.00;;;;;;5092040;28;20453;-69
2021/06/27 13:04:31;;;;;;;4.00;2.10;;;35.70;1.00;;;;;;5096322;28;20426;-69
2021/06/27 13:06:59;;;;;;;3.70;2.20;;;35.90;1.00;;;;;;5095866;28;20453;-69